sensor_id;sensor_type;location;lat;lon;timestamp;pressure;altitude;pressure_sealevel;temperature;humidity
50682;BME280;36779;52.168;20.878;2024-01-30T00:01:58;102262.85;;;-0.42;73.40
50682;BME280;36779;52.168;20.878;2024-01-30T00:04:31;102257.83;;;-0.44;73.29
50682;BME280;36779;52.168;20.878;2024-01-30T00:07:05;102257.36;;;-0.45;73.25
50682;BME280;36779;52.168;20.878;2024-01-30T00:09:39;102254.72;;;-0.45;73.33
50682;BME280;36779;52.168;20.878;2024-01-30T00:12:12;102249.64;;;-0.44;73.17
50682;BME280;36779;52.168;20.878;2024-01-30T00:14:44;102247.50;;;-0.43;73.28
50682;BME280;36779;52.168;20.878;2024-01-30T00:17:17;102243.42;;;-0.41;73.34
50682;BME280;36779;52.168;20.878;2024-01-30T00:19:50;102247.90;;;-0.39;73.44
50682;BME280;36779;52.168;20.878;2024-01-30T00:22:23;102248.00;;;-0.36;73.51
50682;BME280;36779;52.168;20.878;2024-01-30T00:24:55;102240.95;;;-0.35;73.52
50682;BME280;36779;52.168;20.878;2024-01-30T00:27:28;102235.62;;;-0.37;73.46
50682;BME280;36779;52.168;20.878;2024-01-30T00:30:00;102233.14;;;-0.41;73.49
50682;BME280;36779;52.168;20.878;2024-01-30T00:32:33;102234.81;;;-0.45;73.43
50682;BME280;36779;52.168;20.878;2024-01-30T00:35:06;102234.40;;;-0.49;73.41
50682;BME280;36779;52.168;20.878;2024-01-30T00:37:41;102240.45;;;-0.53;73.38
50682;BME280;36779;52.168;20.878;2024-01-30T00:40:13;102238.30;;;-0.57;73.41
50682;BME280;36779;52.168;20.878;2024-01-30T00:42:46;102237.52;;;-0.60;73.41
50682;BME280;36779;52.168;20.878;2024-01-30T00:45:19;102238.57;;;-0.60;73.33
50682;BME280;36779;52.168;20.878;2024-01-30T00:47:51;102240.13;;;-0.59;73.45
50682;BME280;36779;52.168;20.878;2024-01-30T00:50:24;102242.01;;;-0.58;73.29
50682;BME280;36779;52.168;20.878;2024-01-30T00:52:56;102244.80;;;-0.58;73.40
50682;BME280;36779;52.168;20.878;2024-01-30T00:55:29;102245.53;;;-0.53;73.56
50682;BME280;36779;52.168;20.878;2024-01-30T00:58:02;102242.60;;;-0.49;73.46
50682;BME280;36779;52.168;20.878;2024-01-30T01:00:35;102241.11;;;-0.45;73.61
50682;BME280;36779;52.168;20.878;2024-01-30T01:03:08;102239.59;;;-0.41;73.76
50682;BME280;36779;52.168;20.878;2024-01-30T01:05:40;102237.52;;;-0.42;73.58
50682;BME280;36779;52.168;20.878;2024-01-30T01:08:13;102237.23;;;-0.44;73.70
50682;BME280;36779;52.168;20.878;2024-01-30T01:10:48;102238.88;;;-0.46;73.64
50682;BME280;36779;52.168;20.878;2024-01-30T01:13:22;102238.59;;;-0.49;73.65
50682;BME280;36779;52.168;20.878;2024-01-30T01:15:54;102235.03;;;-0.53;73.63
50682;BME280;36779;52.168;20.878;2024-01-30T01:18:27;102234.38;;;-0.54;73.75
50682;BME280;36779;52.168;20.878;2024-01-30T01:20:59;102236.13;;;-0.54;73.60
50682;BME280;36779;52.168;20.878;2024-01-30T01:23:32;102231.38;;;-0.53;73.61
50682;BME280;36779;52.168;20.878;2024-01-30T01:26:05;102226.95;;;-0.51;73.79
50682;BME280;36779;52.168;20.878;2024-01-30T01:28:42;102227.34;;;-0.46;73.86
50682;BME280;36779;52.168;20.878;2024-01-30T01:31:17;102227.23;;;-0.43;73.86
50682;BME280;36779;52.168;20.878;2024-01-30T01:33:49;102226.14;;;-0.41;73.83
50682;BME280;36779;52.168;20.878;2024-01-30T01:36:21;102224.36;;;-0.41;73.82
50682;BME280;36779;52.168;20.878;2024-01-30T01:38:54;102230.56;;;-0.43;73.62
50682;BME280;36779;52.168;20.878;2024-01-30T01:41:31;102229.10;;;-0.59;73.46
50682;BME280;36779;52.168;20.878;2024-01-30T01:44:04;102231.09;;;-0.67;73.61
50682;BME280;36779;52.168;20.878;2024-01-30T01:46:38;102229.41;;;-0.68;73.64
50682;BME280;36779;52.168;20.878;2024-01-30T01:49:10;102226.83;;;-0.71;73.59
50682;BME280;36779;52.168;20.878;2024-01-30T01:51:44;102218.36;;;-0.73;73.70
50682;BME280;36779;52.168;20.878;2024-01-30T01:54:19;102216.91;;;-0.78;73.53
50682;BME280;36779;52.168;20.878;2024-01-30T01:56:52;102214.17;;;-0.79;73.62
50682;BME280;36779;52.168;20.878;2024-01-30T01:59:25;102209.27;;;-0.79;73.59
50682;BME280;36779;52.168;20.878;2024-01-30T02:01:58;102201.40;;;-0.79;73.64
50682;BME280;36779;52.168;20.878;2024-01-30T02:04:30;102199.11;;;-0.78;73.69
50682;BME280;36779;52.168;20.878;2024-01-30T02:07:03;102198.36;;;-0.76;73.74
50682;BME280;36779;52.168;20.878;2024-01-30T02:09:35;102197.34;;;-0.72;73.79
50682;BME280;36779;52.168;20.878;2024-01-30T02:12:08;102199.21;;;-0.69;73.86
50682;BME280;36779;52.168;20.878;2024-01-30T02:14:47;102196.24;;;-0.70;73.79
50682;BME280;36779;52.168;20.878;2024-01-30T02:17:20;102191.44;;;-0.72;73.78
50682;BME280;36779;52.168;20.878;2024-01-30T02:19:54;102188.41;;;-0.76;73.76
50682;BME280;36779;52.168;20.878;2024-01-30T02:22:27;102188.34;;;-0.80;73.88
50682;BME280;36779;52.168;20.878;2024-01-30T02:25:00;102184.08;;;-0.83;73.72
50682;BME280;36779;52.168;20.878;2024-01-30T02:27:32;102182.26;;;-0.86;73.72
50682;BME280;36779;52.168;20.878;2024-01-30T02:30:07;102184.63;;;-0.90;73.67
50682;BME280;36779;52.168;20.878;2024-01-30T02:32:39;102186.05;;;-0.91;73.69
50682;BME280;36779;52.168;20.878;2024-01-30T02:35:12;102191.96;;;-0.89;73.78
50682;BME280;36779;52.168;20.878;2024-01-30T02:37:44;102192.11;;;-0.89;73.70
50682;BME280;36779;52.168;20.878;2024-01-30T02:40:17;102194.48;;;-0.87;73.76
50682;BME280;36779;52.168;20.878;2024-01-30T02:42:49;102196.18;;;-0.85;73.66
50682;BME280;36779;52.168;20.878;2024-01-30T02:45:22;102198.23;;;-0.83;73.87
50682;BME280;36779;52.168;20.878;2024-01-30T02:47:55;102196.23;;;-0.81;73.92
50682;BME280;36779;52.168;20.878;2024-01-30T02:50:27;102195.52;;;-0.81;73.79
50682;BME280;36779;52.168;20.878;2024-01-30T02:53:00;102199.56;;;-0.81;73.88
50682;BME280;36779;52.168;20.878;2024-01-30T02:55:32;102200.83;;;-0.83;73.89
50682;BME280;36779;52.168;20.878;2024-01-30T02:58:06;102198.98;;;-0.85;73.77
50682;BME280;36779;52.168;20.878;2024-01-30T03:00:39;102196.97;;;-0.88;73.91
50682;BME280;36779;52.168;20.878;2024-01-30T03:03:11;102199.50;;;-0.91;73.90
50682;BME280;36779;52.168;20.878;2024-01-30T03:05:44;102197.66;;;-0.94;73.89
50682;BME280;36779;52.168;20.878;2024-01-30T03:08:16;102196.84;;;-0.96;73.85
50682;BME280;36779;52.168;20.878;2024-01-30T03:10:54;102197.04;;;-0.96;73.85
50682;BME280;36779;52.168;20.878;2024-01-30T03:13:26;102192.16;;;-0.97;73.87
50682;BME280;36779;52.168;20.878;2024-01-30T03:15:58;102190.16;;;-0.94;73.81
50682;BME280;36779;52.168;20.878;2024-01-30T03:18:31;102190.27;;;-0.92;73.89
50682;BME280;36779;52.168;20.878;2024-01-30T03:21:04;102190.02;;;-0.89;73.98
50682;BME280;36779;52.168;20.878;2024-01-30T03:23:37;102192.19;;;-0.85;74.01
50682;BME280;36779;52.168;20.878;2024-01-30T03:26:09;102196.14;;;-0.84;74.02
50682;BME280;36779;52.168;20.878;2024-01-30T03:28:44;102194.67;;;-0.82;73.95
50682;BME280;36779;52.168;20.878;2024-01-30T03:31:18;102194.49;;;-0.81;74.01
50682;BME280;36779;52.168;20.878;2024-01-30T03:33:50;102196.12;;;-0.83;74.03
50682;BME280;36779;52.168;20.878;2024-01-30T03:36:23;102194.09;;;-0.85;74.02
50682;BME280;36779;52.168;20.878;2024-01-30T03:38:55;102193.95;;;-0.87;74.07
50682;BME280;36779;52.168;20.878;2024-01-30T03:41:27;102195.42;;;-0.89;74.05
50682;BME280;36779;52.168;20.878;2024-01-30T03:43:59;102192.95;;;-0.94;74.00
50682;BME280;36779;52.168;20.878;2024-01-30T03:46:32;102191.86;;;-0.99;73.92
50682;BME280;36779;52.168;20.878;2024-01-30T03:49:05;102190.38;;;-1.02;73.95
50682;BME280;36779;52.168;20.878;2024-01-30T03:51:38;102184.70;;;-1.04;73.87
50682;BME280;36779;52.168;20.878;2024-01-30T03:54:11;102182.31;;;-1.06;73.90
50682;BME280;36779;52.168;20.878;2024-01-30T03:56:43;102181.61;;;-1.07;73.80
50682;BME280;36779;52.168;20.878;2024-01-30T03:59:15;102179.70;;;-1.07;73.87
50682;BME280;36779;52.168;20.878;2024-01-30T04:01:49;102177.77;;;-1.06;73.85
50682;BME280;36779;52.168;20.878;2024-01-30T04:04:21;102177.77;;;-1.06;73.94
50682;BME280;36779;52.168;20.878;2024-01-30T04:06:54;102179.71;;;-1.07;74.03
50682;BME280;36779;52.168;20.878;2024-01-30T04:09:26;102177.50;;;-1.09;74.03
50682;BME280;36779;52.168;20.878;2024-01-30T04:12:00;102180.36;;;-1.11;74.05
50682;BME280;36779;52.168;20.878;2024-01-30T04:14:34;102177.68;;;-1.15;74.05
50682;BME280;36779;52.168;20.878;2024-01-30T04:17:08;102177.77;;;-1.18;73.89
50682;BME280;36779;52.168;20.878;2024-01-30T04:19:40;102175.08;;;-1.22;73.99
50682;BME280;36779;52.168;20.878;2024-01-30T04:22:13;102176.70;;;-1.24;74.00
50682;BME280;36779;52.168;20.878;2024-01-30T04:24:45;102178.30;;;-1.25;73.92
50682;BME280;36779;52.168;20.878;2024-01-30T04:27:18;102176.53;;;-1.25;74.01
50682;BME280;36779;52.168;20.878;2024-01-30T04:29:50;102180.33;;;-1.23;73.98
50682;BME280;36779;52.168;20.878;2024-01-30T04:32:24;102178.84;;;-1.20;74.02
50682;BME280;36779;52.168;20.878;2024-01-30T04:34:56;102184.13;;;-1.15;73.97
50682;BME280;36779;52.168;20.878;2024-01-30T04:37:29;102181.96;;;-1.13;74.16
50682;BME280;36779;52.168;20.878;2024-01-30T04:40:01;102182.25;;;-1.10;74.17
50682;BME280;36779;52.168;20.878;2024-01-30T04:42:35;102184.34;;;-1.10;74.28
50682;BME280;36779;52.168;20.878;2024-01-30T04:45:09;102182.16;;;-1.13;74.13
50682;BME280;36779;52.168;20.878;2024-01-30T04:47:49;102181.75;;;-1.17;74.16
50682;BME280;36779;52.168;20.878;2024-01-30T04:50:24;102177.64;;;-1.20;74.18
50682;BME280;36779;52.168;20.878;2024-01-30T04:52:58;102174.80;;;-1.25;74.11
50682;BME280;36779;52.168;20.878;2024-01-30T04:55:30;102174.76;;;-1.29;74.14
50682;BME280;36779;52.168;20.878;2024-01-30T04:58:02;102173.11;;;-1.33;74.04
50682;BME280;36779;52.168;20.878;2024-01-30T05:00:35;102173.35;;;-1.35;74.03
50682;BME280;36779;52.168;20.878;2024-01-30T05:03:08;102170.24;;;-1.36;73.98
50682;BME280;36779;52.168;20.878;2024-01-30T05:05:40;102165.19;;;-1.37;74.00
50682;BME280;36779;52.168;20.878;2024-01-30T05:08:12;102169.86;;;-1.35;73.92
50682;BME280;36779;52.168;20.878;2024-01-30T05:10:47;102168.56;;;-1.32;74.06
50682;BME280;36779;52.168;20.878;2024-01-30T05:13:21;102169.31;;;-1.28;74.23
50682;BME280;36779;52.168;20.878;2024-01-30T05:16:01;102167.08;;;-1.23;74.18
50682;BME280;36779;52.168;20.878;2024-01-30T05:18:38;102168.05;;;-1.21;74.18
50682;BME280;36779;52.168;20.878;2024-01-30T05:21:10;102170.17;;;-1.22;74.26
50682;BME280;36779;52.168;20.878;2024-01-30T05:23:42;102168.33;;;-1.24;74.16
50682;BME280;36779;52.168;20.878;2024-01-30T05:26:14;102166.15;;;-1.27;74.26
50682;BME280;36779;52.168;20.878;2024-01-30T05:28:46;102162.59;;;-1.31;74.25
50682;BME280;36779;52.168;20.878;2024-01-30T05:31:19;102167.59;;;-1.35;74.12
50682;BME280;36779;52.168;20.878;2024-01-30T05:33:52;102168.54;;;-1.38;74.15
50682;BME280;36779;52.168;20.878;2024-01-30T05:36:24;102168.58;;;-1.40;74.14
50682;BME280;36779;52.168;20.878;2024-01-30T05:38:57;102163.54;;;-1.40;74.05
50682;BME280;36779;52.168;20.878;2024-01-30T05:41:29;102166.64;;;-1.39;74.11
50682;BME280;36779;52.168;20.878;2024-01-30T05:44:06;102168.69;;;-1.37;74.24
50682;BME280;36779;52.168;20.878;2024-01-30T05:46:45;102168.26;;;-1.34;74.27
50682;BME280;36779;52.168;20.878;2024-01-30T05:49:18;102171.08;;;-1.29;74.27
50682;BME280;36779;52.168;20.878;2024-01-30T05:51:50;102172.36;;;-1.25;74.33
50682;BME280;36779;52.168;20.878;2024-01-30T05:54:23;102174.91;;;-1.22;74.30
50682;BME280;36779;52.168;20.878;2024-01-30T05:56:55;102173.38;;;-1.18;74.39
50682;BME280;36779;52.168;20.878;2024-01-30T05:59:27;102173.28;;;-1.14;74.56
50682;BME280;36779;52.168;20.878;2024-01-30T06:01:59;102174.11;;;-1.12;74.55
50682;BME280;36779;52.168;20.878;2024-01-30T06:04:32;102169.14;;;-1.16;74.47
50682;BME280;36779;52.168;20.878;2024-01-30T06:07:05;102169.81;;;-1.21;74.42
50682;BME280;36779;52.168;20.878;2024-01-30T06:09:37;102170.52;;;-1.27;74.17
50682;BME280;36779;52.168;20.878;2024-01-30T06:12:11;102167.55;;;-1.34;74.21
50682;BME280;36779;52.168;20.878;2024-01-30T06:14:44;102167.67;;;-1.38;74.17
50682;BME280;36779;52.168;20.878;2024-01-30T06:17:17;102166.66;;;-1.40;74.17
50682;BME280;36779;52.168;20.878;2024-01-30T06:19:52;102165.96;;;-1.39;74.12
50682;BME280;36779;52.168;20.878;2024-01-30T06:22:24;102166.08;;;-1.37;74.30
50682;BME280;36779;52.168;20.878;2024-01-30T06:24:57;102169.13;;;-1.34;74.32
50682;BME280;36779;52.168;20.878;2024-01-30T06:27:29;102168.31;;;-1.30;74.29
50682;BME280;36779;52.168;20.878;2024-01-30T06:30:03;102168.56;;;-1.27;74.36
50682;BME280;36779;52.168;20.878;2024-01-30T06:32:38;102173.20;;;-1.24;74.39
50682;BME280;36779;52.168;20.878;2024-01-30T06:35:11;102170.95;;;-1.25;74.34
50682;BME280;36779;52.168;20.878;2024-01-30T06:37:43;102172.00;;;-1.25;74.22
50682;BME280;36779;52.168;20.878;2024-01-30T06:40:15;102170.44;;;-1.31;74.19
50682;BME280;36779;52.168;20.878;2024-01-30T06:42:48;102169.60;;;-1.32;74.31
50682;BME280;36779;52.168;20.878;2024-01-30T06:45:20;102173.80;;;-1.33;74.36
50682;BME280;36779;52.168;20.878;2024-01-30T06:47:52;102178.70;;;-1.33;74.26
50682;BME280;36779;52.168;20.878;2024-01-30T06:50:25;102175.27;;;-1.35;74.29
50682;BME280;36779;52.168;20.878;2024-01-30T06:52:57;102179.08;;;-1.34;74.34
50682;BME280;36779;52.168;20.878;2024-01-30T06:55:30;102175.69;;;-1.32;74.21
50682;BME280;36779;52.168;20.878;2024-01-30T06:58:04;102175.95;;;-1.28;74.35
50682;BME280;36779;52.168;20.878;2024-01-30T07:00:37;102177.87;;;-1.22;74.29
50682;BME280;36779;52.168;20.878;2024-01-30T07:03:10;102180.46;;;-1.15;74.45
50682;BME280;36779;52.168;20.878;2024-01-30T07:05:43;102179.37;;;-1.07;74.45
50682;BME280;36779;52.168;20.878;2024-01-30T07:08:16;102178.64;;;-1.00;74.54
50682;BME280;36779;52.168;20.878;2024-01-30T07:10:49;102181.54;;;-0.91;74.63
50682;BME280;36779;52.168;20.878;2024-01-30T07:13:21;102180.66;;;-0.86;74.65
50682;BME280;36779;52.168;20.878;2024-01-30T07:15:54;102183.22;;;-0.83;74.41
50682;BME280;36779;52.168;20.878;2024-01-30T07:18:31;102181.40;;;-0.81;74.68
50682;BME280;36779;52.168;20.878;2024-01-30T07:21:06;102181.63;;;-0.77;74.58
50682;BME280;36779;52.168;20.878;2024-01-30T07:23:38;102182.23;;;-0.74;74.69
50682;BME280;36779;52.168;20.878;2024-01-30T07:26:12;102184.27;;;-0.72;74.56
50682;BME280;36779;52.168;20.878;2024-01-30T07:28:45;102183.84;;;-0.69;74.77
50682;BME280;36779;52.168;20.878;2024-01-30T07:31:19;102182.02;;;-0.66;74.74
50682;BME280;36779;52.168;20.878;2024-01-30T07:33:55;102182.19;;;-0.61;74.72
50682;BME280;36779;52.168;20.878;2024-01-30T07:36:28;102186.00;;;-0.54;74.71
50682;BME280;36779;52.168;20.878;2024-01-30T07:39:01;102185.75;;;-0.46;74.63
50682;BME280;36779;52.168;20.878;2024-01-30T07:41:35;102186.95;;;-0.40;74.63
50682;BME280;36779;52.168;20.878;2024-01-30T07:44:13;102184.89;;;-0.29;74.70
50682;BME280;36779;52.168;20.878;2024-01-30T07:46:47;102182.92;;;-0.17;74.78
50682;BME280;36779;52.168;20.878;2024-01-30T07:49:31;102184.26;;;-0.04;74.91
50682;BME280;36779;52.168;20.878;2024-01-30T07:52:04;102177.23;;;0.07;75.02
50682;BME280;36779;52.168;20.878;2024-01-30T07:54:40;102183.58;;;0.16;75.14
50682;BME280;36779;52.168;20.878;2024-01-30T07:57:15;102185.02;;;0.25;75.06
50682;BME280;36779;52.168;20.878;2024-01-30T07:59:47;102183.82;;;0.35;75.17
50682;BME280;36779;52.168;20.878;2024-01-30T08:02:19;102179.48;;;0.44;75.10
50682;BME280;36779;52.168;20.878;2024-01-30T08:04:52;102178.69;;;0.52;75.09
50682;BME280;36779;52.168;20.878;2024-01-30T08:07:24;102173.77;;;0.62;75.13
50682;BME280;36779;52.168;20.878;2024-01-30T08:09:57;102168.65;;;0.73;75.10
50682;BME280;36779;52.168;20.878;2024-01-30T08:12:30;102172.45;;;0.84;75.08
50682;BME280;36779;52.168;20.878;2024-01-30T08:15:06;102168.86;;;0.96;75.10
50682;BME280;36779;52.168;20.878;2024-01-30T08:17:39;102168.59;;;1.08;75.22
50682;BME280;36779;52.168;20.878;2024-01-30T08:20:12;102168.15;;;1.20;75.23
50682;BME280;36779;52.168;20.878;2024-01-30T08:22:45;102167.73;;;1.30;75.22
50682;BME280;36779;52.168;20.878;2024-01-30T08:25:18;102163.73;;;1.39;75.25
50682;BME280;36779;52.168;20.878;2024-01-30T08:27:50;102165.27;;;1.49;75.36
50682;BME280;36779;52.168;20.878;2024-01-30T08:30:22;102162.46;;;1.58;75.24
50682;BME280;36779;52.168;20.878;2024-01-30T08:32:55;102157.38;;;1.67;75.25
50682;BME280;36779;52.168;20.878;2024-01-30T08:35:29;102155.67;;;1.74;75.33
50682;BME280;36779;52.168;20.878;2024-01-30T08:38:05;102154.98;;;1.82;75.26
50682;BME280;36779;52.168;20.878;2024-01-30T08:40:37;102154.50;;;1.94;75.28
50682;BME280;36779;52.168;20.878;2024-01-30T08:43:10;102153.77;;;2.12;75.39
50682;BME280;36779;52.168;20.878;2024-01-30T08:45:42;102148.74;;;2.35;75.36
50682;BME280;36779;52.168;20.878;2024-01-30T08:48:14;102144.94;;;2.54;75.33
50682;BME280;36779;52.168;20.878;2024-01-30T08:50:48;102149.19;;;2.69;75.22
50682;BME280;36779;52.168;20.878;2024-01-30T08:53:20;102154.92;;;2.82;75.11
50682;BME280;36779;52.168;20.878;2024-01-30T08:55:52;102154.30;;;2.96;75.26
50682;BME280;36779;52.168;20.878;2024-01-30T08:58:25;102158.14;;;3.11;75.35
50682;BME280;36779;52.168;20.878;2024-01-30T09:00:57;102158.80;;;3.39;75.61
50682;BME280;36779;52.168;20.878;2024-01-30T09:03:29;102159.87;;;3.68;75.65
50682;BME280;36779;52.168;20.878;2024-01-30T09:06:01;102159.78;;;3.98;75.68
50682;BME280;36779;52.168;20.878;2024-01-30T09:08:34;102155.08;;;4.22;75.92
50682;BME280;36779;52.168;20.878;2024-01-30T09:11:11;102150.50;;;4.59;76.23
50682;BME280;36779;52.168;20.878;2024-01-30T09:13:44;102146.73;;;4.74;75.91
50682;BME280;36779;52.168;20.878;2024-01-30T09:16:16;102148.70;;;4.70;75.46
50682;BME280;36779;52.168;20.878;2024-01-30T09:18:49;102147.90;;;4.69;75.35
50682;BME280;36779;52.168;20.878;2024-01-30T09:21:22;102149.23;;;4.67;75.05
50682;BME280;36779;52.168;20.878;2024-01-30T09:24:01;102147.41;;;4.61;74.99
50682;BME280;36779;52.168;20.878;2024-01-30T09:26:34;102143.26;;;4.56;74.95
50682;BME280;36779;52.168;20.878;2024-01-30T09:29:07;102143.24;;;4.54;74.93
50682;BME280;36779;52.168;20.878;2024-01-30T09:31:47;102141.92;;;4.52;75.00
50682;BME280;36779;52.168;20.878;2024-01-30T09:34:20;102135.71;;;4.53;74.90
50682;BME280;36779;52.168;20.878;2024-01-30T09:36:52;102138.83;;;4.54;74.93
50682;BME280;36779;52.168;20.878;2024-01-30T09:39:25;102137.20;;;4.58;75.04
50682;BME280;36779;52.168;20.878;2024-01-30T09:42:02;102135.09;;;4.61;74.97
50682;BME280;36779;52.168;20.878;2024-01-30T09:44:39;102134.73;;;4.64;74.97
50682;BME280;36779;52.168;20.878;2024-01-30T09:47:16;102136.86;;;4.68;75.02
50682;BME280;36779;52.168;20.878;2024-01-30T09:49:50;102135.75;;;4.72;74.92
50682;BME280;36779;52.168;20.878;2024-01-30T09:52:22;102134.62;;;4.77;74.93
50682;BME280;36779;52.168;20.878;2024-01-30T09:54:56;102132.93;;;4.82;74.99
50682;BME280;36779;52.168;20.878;2024-01-30T09:57:28;102128.21;;;4.88;74.99
50682;BME280;36779;52.168;20.878;2024-01-30T10:00:01;102127.15;;;4.94;74.94
50682;BME280;36779;52.168;20.878;2024-01-30T10:02:42;102128.91;;;5.01;74.86
50682;BME280;36779;52.168;20.878;2024-01-30T10:05:16;102122.98;;;5.09;74.92
50682;BME280;36779;52.168;20.878;2024-01-30T10:07:56;102127.80;;;5.21;74.91
50682;BME280;36779;52.168;20.878;2024-01-30T10:10:29;102123.59;;;5.37;75.10
50682;BME280;36779;52.168;20.878;2024-01-30T10:13:02;102121.39;;;5.63;75.42
50682;BME280;36779;52.168;20.878;2024-01-30T10:15:36;102116.00;;;6.07;75.97
50682;BME280;36779;52.168;20.878;2024-01-30T10:18:09;102114.09;;;6.68;76.39
50682;BME280;36779;52.168;20.878;2024-01-30T10:20:42;102109.52;;;7.35;76.36
50682;BME280;36779;52.168;20.878;2024-01-30T10:23:14;102109.33;;;8.02;76.16
50682;BME280;36779;52.168;20.878;2024-01-30T10:25:48;102099.13;;;8.63;75.78
50682;BME280;36779;52.168;20.878;2024-01-30T10:28:20;102098.42;;;9.27;75.76
50682;BME280;36779;52.168;20.878;2024-01-30T10:31:00;102093.77;;;9.85;75.32
50682;BME280;36779;52.168;20.878;2024-01-30T10:33:37;102089.58;;;10.33;74.79
50682;BME280;36779;52.168;20.878;2024-01-30T10:36:10;102089.64;;;10.78;74.73
50682;BME280;36779;52.168;20.878;2024-01-30T10:38:50;102084.70;;;11.26;74.28
50682;BME280;36779;52.168;20.878;2024-01-30T10:41:27;102079.23;;;11.64;73.98
50682;BME280;36779;52.168;20.878;2024-01-30T10:44:10;102075.42;;;11.93;73.36
50682;BME280;36779;52.168;20.878;2024-01-30T10:46:47;102070.83;;;12.20;73.19
50682;BME280;36779;52.168;20.878;2024-01-30T10:49:24;102068.27;;;12.41;73.02
50682;BME280;36779;52.168;20.878;2024-01-30T10:51:58;102066.41;;;12.65;72.95
50682;BME280;36779;52.168;20.878;2024-01-30T10:54:30;102064.92;;;12.99;73.05
50682;BME280;36779;52.168;20.878;2024-01-30T10:57:04;102061.33;;;13.22;72.80
50682;BME280;36779;52.168;20.878;2024-01-30T10:59:37;102058.47;;;13.19;72.01
50682;BME280;36779;52.168;20.878;2024-01-30T11:02:10;102053.34;;;13.27;72.37
50682;BME280;36779;52.168;20.878;2024-01-30T11:04:43;102053.92;;;13.29;72.01
50682;BME280;36779;52.168;20.878;2024-01-30T11:07:18;102051.48;;;13.26;72.12
50682;BME280;36779;52.168;20.878;2024-01-30T11:09:53;102051.12;;;13.18;71.93
50682;BME280;36779;52.168;20.878;2024-01-30T11:12:27;102045.14;;;12.97;71.54
50682;BME280;36779;52.168;20.878;2024-01-30T11:15:08;102044.16;;;12.74;71.41
50682;BME280;36779;52.168;20.878;2024-01-30T11:17:45;102047.53;;;12.60;71.69
50682;BME280;36779;52.168;20.878;2024-01-30T11:20:18;102037.25;;;12.35;71.29
50682;BME280;36779;52.168;20.878;2024-01-30T11:22:54;102032.02;;;12.03;71.60
50682;BME280;36779;52.168;20.878;2024-01-30T11:25:28;102033.48;;;11.75;71.37
50682;BME280;36779;52.168;20.878;2024-01-30T11:28:02;102031.51;;;11.43;71.15
50682;BME280;36779;52.168;20.878;2024-01-30T11:30:37;102032.47;;;11.18;71.59
50682;BME280;36779;52.168;20.878;2024-01-30T11:33:10;102031.85;;;11.02;71.79
50682;BME280;36779;52.168;20.878;2024-01-30T11:35:44;102031.97;;;10.94;71.75
50682;BME280;36779;52.168;20.878;2024-01-30T11:38:17;102030.17;;;10.86;71.73
50682;BME280;36779;52.168;20.878;2024-01-30T11:40:51;102023.95;;;10.72;71.67
50682;BME280;36779;52.168;20.878;2024-01-30T11:43:24;102018.86;;;10.53;71.41
50682;BME280;36779;52.168;20.878;2024-01-30T11:45:56;102014.56;;;10.34;71.39
50682;BME280;36779;52.168;20.878;2024-01-30T11:48:28;102012.22;;;10.13;71.15
50682;BME280;36779;52.168;20.878;2024-01-30T11:51:01;102010.77;;;9.96;71.12
50682;BME280;36779;52.168;20.878;2024-01-30T11:53:34;102009.95;;;9.76;71.08
50682;BME280;36779;52.168;20.878;2024-01-30T11:56:08;102008.29;;;9.58;70.93
50682;BME280;36779;52.168;20.878;2024-01-30T11:58:43;102008.52;;;9.46;70.86
50682;BME280;36779;52.168;20.878;2024-01-30T12:01:18;102007.59;;;9.32;70.88
50682;BME280;36779;52.168;20.878;2024-01-30T12:03:52;102006.21;;;9.22;70.90
50682;BME280;36779;52.168;20.878;2024-01-30T12:06:24;102005.27;;;9.13;70.96
50682;BME280;36779;52.168;20.878;2024-01-30T12:09:02;102007.30;;;9.00;70.69
50682;BME280;36779;52.168;20.878;2024-01-30T12:11:44;102002.70;;;8.90;70.81
50682;BME280;36779;52.168;20.878;2024-01-30T12:14:17;101998.73;;;8.84;70.77
50682;BME280;36779;52.168;20.878;2024-01-30T12:16:51;101995.56;;;8.79;70.79
50682;BME280;36779;52.168;20.878;2024-01-30T12:19:26;101993.81;;;8.74;70.80
50682;BME280;36779;52.168;20.878;2024-01-30T12:21:59;101994.59;;;8.70;70.61
50682;BME280;36779;52.168;20.878;2024-01-30T12:24:31;101997.21;;;8.66;70.63
50682;BME280;36779;52.168;20.878;2024-01-30T12:27:04;101994.89;;;8.64;70.80
50682;BME280;36779;52.168;20.878;2024-01-30T12:29:36;101993.81;;;8.61;70.69
50682;BME280;36779;52.168;20.878;2024-01-30T12:32:16;101997.44;;;8.55;70.64
50682;BME280;36779;52.168;20.878;2024-01-30T12:34:48;101993.07;;;8.49;70.61
50682;BME280;36779;52.168;20.878;2024-01-30T12:37:30;101992.17;;;8.44;70.69
50682;BME280;36779;52.168;20.878;2024-01-30T12:40:05;101992.16;;;8.42;70.52
50682;BME280;36779;52.168;20.878;2024-01-30T12:42:37;101985.81;;;8.36;70.55
50682;BME280;36779;52.168;20.878;2024-01-30T12:45:10;101984.46;;;8.33;70.54
50682;BME280;36779;52.168;20.878;2024-01-30T12:47:42;101976.36;;;8.30;70.47
50682;BME280;36779;52.168;20.878;2024-01-30T12:50:15;101977.80;;;8.27;70.58
50682;BME280;36779;52.168;20.878;2024-01-30T12:52:49;101976.27;;;8.24;70.57
50682;BME280;36779;52.168;20.878;2024-01-30T12:55:25;101974.48;;;8.19;70.42
50682;BME280;36779;52.168;20.878;2024-01-30T12:57:59;101976.11;;;8.13;70.36
50682;BME280;36779;52.168;20.878;2024-01-30T13:00:32;101975.04;;;8.03;70.21
50682;BME280;36779;52.168;20.878;2024-01-30T13:03:06;101973.12;;;7.95;70.26
50682;BME280;36779;52.168;20.878;2024-01-30T13:05:39;101970.15;;;7.92;70.26
50682;BME280;36779;52.168;20.878;2024-01-30T13:08:11;101970.13;;;7.90;70.26
50682;BME280;36779;52.168;20.878;2024-01-30T13:10:44;101967.55;;;7.86;70.07
50682;BME280;36779;52.168;20.878;2024-01-30T13:13:20;101966.42;;;7.82;70.16
50682;BME280;36779;52.168;20.878;2024-01-30T13:15:52;101970.16;;;7.76;70.16